Time;durP1;ratioP1;P1;durP2;ratioP2;P2;SDS_P1;SDS_P2;PMS_P1;PMS_P2;Temp;Humidity;BMP_temperature;BMP_pressure;BME280_temperature;BME280_humidity;BME280_pressure;Samples;Min_cycle;Max_cycle;Signal;HPM_P1;HPM_P2
2023/04/03 00:00:23;;;;;;;2.55;0.70;;;4.10;99.90;;;;;;5012813;28;20464;-74
2023/04/03 00:02:49;;;;;;;1.83;1.08;;;4.20;99.90;;;;;;5013242;28;20065;-74
2023/04/03 00:05:15;;;;;;;1.60;1.27;;;4.10;99.90;;;;;;5009783;28;20426;-74
2023/04/03 00:07:40;;;;;;;0.85;0.77;;;4.10;99.90;;;;;;5013306;28;20038;-73
2023/04/03 00:10:07;;;;;;;1.63;0.82;;;4.10;99.90;;;;;;5012887;28;20033;-74
2023/04/03 00:12:33;;;;;;;1.75;0.73;;;4.10;99.90;;;;;;5013443;28;20033;-74
2023/04/03 00:14:59;;;;;;;1.77;1.00;;;4.00;99.90;;;;;;5008909;28;20508;-73
2023/04/03 00:17:25;;;;;;;2.65;0.80;;;4.10;99.90;;;;;;5013075;28;20088;-74
2023/04/03 00:19:51;;;;;;;0.95;0.77;;;4.00;99.90;;;;;;5009489;28;20103;-73
2023/04/03 00:22:16;;;;;;;1.02;0.73;;;4.00;99.90;;;;;;5013224;28;20486;-73
2023/04/03 00:24:42;;;;;;;2.13;0.60;;;4.10;99.90;;;;;;5025777;28;20073;-73
2023/04/03 00:27:08;;;;;;;3.47;1.35;;;4.00;99.90;;;;;;5012829;28;20041;-74
2023/04/03 00:29:34;;;;;;;1.67;0.77;;;4.00;99.90;;;;;;5009277;28;20076;-73
2023/04/03 00:32:00;;;;;;;2.22;1.50;;;3.90;99.90;;;;;;5005049;28;20037;-74
2023/04/03 00:34:26;;;;;;;2.28;1.10;;;3.90;99.90;;;;;;5004091;28;20030;-74
2023/04/03 00:36:51;;;;;;;3.92;1.15;;;3.80;99.90;;;;;;5012792;28;20473;-74
2023/04/03 00:39:17;;;;;;;2.75;0.90;;;3.70;99.90;;;;;;5012181;28;20112;-74
2023/04/03 00:41:43;;;;;;;3.80;1.05;;;3.70;99.90;;;;;;5013028;28;20038;-74
2023/04/03 00:44:44;;;;;;;3.05;1.23;;;3.60;99.90;;;;;;5011317;28;20092;-73
2023/04/03 00:47:17;;;;;;;5.57;0.95;;;3.60;99.90;;;;;;4995991;28;20045;-73
2023/04/03 00:49:44;;;;;;;0.73;0.70;;;3.50;99.90;;;;;;5008079;28;20048;-73
2023/04/03 00:52:17;;;;;;;2.22;0.93;;;3.50;99.90;;;;;;5005892;28;20029;-74
2023/04/03 00:54:45;;;;;;;1.25;0.77;;;3.50;99.90;;;;;;5008764;28;20037;-74
2023/04/03 00:57:12;;;;;;;1.85;1.10;;;3.30;99.90;;;;;;5005809;28;20121;-74
2023/04/03 00:59:50;;;;;;;6.65;0.93;;;3.30;99.90;;;;;;4992639;28;20480;-73
2023/04/03 01:02:18;;;;;;;1.48;0.88;;;3.20;99.90;;;;;;5006615;28;20065;-73
2023/04/03 01:04:44;;;;;;;2.00;1.38;;;3.20;99.90;;;;;;5009080;28;20042;-73
2023/04/03 01:07:22;;;;;;;3.15;0.93;;;3.20;99.90;;;;;;5004643;28;20022;-73
2023/04/03 01:09:52;;;;;;;1.38;0.98;;;3.30;99.90;;;;;;5010905;28;20057;-73
2023/04/03 01:12:22;;;;;;;1.67;1.08;;;3.30;99.90;;;;;;5009397;28;20034;-73
2023/04/03 01:14:53;;;;;;;1.33;1.00;;;3.10;99.90;;;;;;5008476;28;20030;-73
2023/04/03 01:17:39;;;;;;;4.60;1.73;;;3.10;99.90;;;;;;4990273;28;20040;-73
2023/04/03 01:20:11;;;;;;;1.55;0.90;;;3.10;99.90;;;;;;5011233;28;20124;-73
2023/04/03 01:23:29;;;;;;;0.60;0.57;;;3.10;99.90;;;;;;5011848;28;20429;-72
2023/04/03 01:25:56;;;;;;;1.65;0.93;;;3.10;99.90;;;;;;5004324;28;20040;-73
2023/04/03 01:28:31;;;;;;;1.90;1.20;;;3.20;99.90;;;;;;5010055;28;20026;-73
2023/04/03 01:31:27;;;;;;;5.35;1.45;;;3.30;99.90;;;;;;4998793;28;20068;-73
2023/04/03 01:33:54;;;;;;;3.13;1.27;;;3.30;99.90;;;;;;4995064;28;20053;-73
2023/04/03 01:36:28;;;;;;;2.58;1.05;;;3.20;99.90;;;;;;5002455;28;20033;-73
2023/04/03 01:38:55;;;;;;;1.48;0.82;;;3.30;99.90;;;;;;5008548;28;20072;-72
2023/04/03 01:41:21;;;;;;;1.67;1.02;;;3.20;99.90;;;;;;5009262;28;20038;-73
2023/04/03 01:43:48;;;;;;;1.13;1.00;;;3.30;99.90;;;;;;5008198;28;20049;-72
2023/04/03 01:46:16;;;;;;;1.73;1.27;;;3.30;99.90;;;;;;5002182;28;20088;-72
2023/04/03 01:48:42;;;;;;;1.30;1.02;;;3.20;99.90;;;;;;5009634;28;20034;-73
2023/04/03 01:51:09;;;;;;;1.85;0.77;;;3.20;99.90;;;;;;5011845;28;20145;-73
2023/04/03 01:53:35;;;;;;;0.82;0.70;;;3.20;99.90;;;;;;5009172;28;20464;-73
2023/04/03 01:56:01;;;;;;;1.05;0.80;;;3.20;99.90;;;;;;5011528;28;20026;-72
2023/04/03 01:58:26;;;;;;;2.25;1.42;;;3.10;99.90;;;;;;5010423;28;20033;-73
2023/04/03 02:00:52;;;;;;;1.00;0.90;;;3.10;99.90;;;;;;5002738;28;20029;-73
2023/04/03 02:03:18;;;;;;;1.90;1.67;;;3.00;99.90;;;;;;5010901;28;20033;-72
2023/04/03 02:05:45;;;;;;;2.47;1.90;;;3.00;99.90;;;;;;5011446;28;20037;-73
2023/04/03 02:08:11;;;;;;;5.22;1.00;;;2.90;99.90;;;;;;5010327;28;20130;-73
2023/04/03 02:10:37;;;;;;;5.32;1.58;;;2.90;99.90;;;;;;4985418;28;20033;-73
2023/04/03 02:13:03;;;;;;;1.15;0.93;;;2.90;99.90;;;;;;5009657;28;20030;-73
2023/04/03 02:15:29;;;;;;;3.13;1.30;;;2.90;99.90;;;;;;4977391;28;20485;-73
2023/04/03 02:17:55;;;;;;;2.08;1.00;;;2.80;99.90;;;;;;4993597;28;20029;-73
2023/04/03 02:20:20;;;;;;;0.98;0.90;;;2.80;99.90;;;;;;5010256;28;20444;-73
2023/04/03 02:22:46;;;;;;;5.18;1.60;;;2.90;99.90;;;;;;5010840;28;20034;-73
2023/04/03 02:25:12;;;;;;;6.10;1.65;;;2.90;99.90;;;;;;5004059;28;20087;-73
2023/04/03 02:27:38;;;;;;;6.93;1.77;;;2.90;99.90;;;;;;5010796;28;20041;-73
2023/04/03 02:30:05;;;;;;;1.45;1.27;;;2.80;99.90;;;;;;5005336;28;20104;-73
2023/04/03 02:32:31;;;;;;;2.33;1.65;;;2.80;99.90;;;;;;5010963;28;20053;-72
2023/04/03 02:34:57;;;;;;;1.23;1.02;;;2.80;99.90;;;;;;5005676;28;20471;-73
2023/04/03 02:37:23;;;;;;;7.57;1.42;;;2.80;99.90;;;;;;4989805;28;20037;-73
2023/04/03 02:39:49;;;;;;;3.65;1.70;;;2.70;99.90;;;;;;5009891;28;20033;-73
2023/04/03 02:42:14;;;;;;;1.27;0.85;;;2.70;99.90;;;;;;5011111;28;20025;-74
2023/04/03 02:44:40;;;;;;;2.30;1.15;;;2.60;99.90;;;;;;5006682;28;20544;-73
2023/04/03 02:47:06;;;;;;;1.85;1.42;;;2.70;99.90;;;;;;5010762;28;20038;-73
2023/04/03 02:49:32;;;;;;;7.85;1.70;;;2.60;99.90;;;;;;5009998;28;20026;-73
2023/04/03 02:51:57;;;;;;;0.88;0.80;;;2.60;99.90;;;;;;5010967;28;20488;-73
2023/04/03 02:54:27;;;;;;;4.10;1.70;;;2.70;99.90;;;;;;5009903;28;20036;-73
2023/04/03 02:56:53;;;;;;;2.22;1.38;;;2.60;99.90;;;;;;5010630;28;20481;-72
2023/04/03 02:59:19;;;;;;;0.77;0.57;;;2.60;99.90;;;;;;5023487;28;20041;-72
2023/04/03 03:01:46;;;;;;;7.80;1.33;;;2.50;99.90;;;;;;5010570;28;20030;-72
2023/04/03 03:04:11;;;;;;;1.48;1.25;;;2.40;99.90;;;;;;5009608;28;20036;-71
2023/04/03 03:06:37;;;;;;;3.55;1.55;;;2.40;99.90;;;;;;5000776;28;20033;-72
2023/04/03 03:09:04;;;;;;;4.25;1.52;;;2.30;99.90;;;;;;5009582;28;20096;-73
2023/04/03 03:11:30;;;;;;;4.05;1.35;;;2.20;99.90;;;;;;4984884;28;20076;-73
2023/04/03 03:13:56;;;;;;;1.77;1.20;;;2.20;99.90;;;;;;5009267;28;20034;-73
2023/04/03 03:16:22;;;;;;;1.63;1.30;;;2.10;99.90;;;;;;5002947;28;20033;-73
2023/04/03 03:18:48;;;;;;;1.35;1.25;;;2.20;99.90;;;;;;5010004;28;20034;-73
2023/04/03 03:21:14;;;;;;;1.48;1.13;;;2.20;99.90;;;;;;5010724;28;20026;-73
2023/04/03 03:23:40;;;;;;;2.33;1.40;;;2.20;99.90;;;;;;5011699;28;20030;-73
2023/04/03 03:26:09;;;;;;;1.90;1.13;;;2.20;99.90;;;;;;5004657;28;20034;-73
2023/04/03 03:28:36;;;;;;;9.15;1.40;;;2.10;99.90;;;;;;5011943;28;20187;-73
2023/04/03 03:31:03;;;;;;;1.98;1.35;;;2.20;99.90;;;;;;5004632;28;20056;-73
2023/04/03 03:33:30;;;;;;;2.10;1.60;;;2.20;99.90;;;;;;5011754;28;20073;-73
2023/04/03 03:35:56;;;;;;;6.07;2.05;;;2.20;99.90;;;;;;5014058;28;20034;-74
2023/04/03 03:38:22;;;;;;;3.00;1.38;;;2.10;99.90;;;;;;5013391;28;20030;-73
2023/04/03 03:40:50;;;;;;;2.90;2.08;;;2.20;99.90;;;;;;5013716;28;20040;-73
2023/04/03 03:43:17;;;;;;;1.77;1.40;;;2.20;99.90;;;;;;5012486;28;20034;-73
2023/04/03 03:45:44;;;;;;;1.60;1.30;;;2.20;99.90;;;;;;5012072;28;20037;-73
2023/04/03 03:48:09;;;;;;;1.70;0.98;;;2.20;99.90;;;;;;5013476;28;20363;-73
2023/04/03 03:50:35;;;;;;;3.08;1.67;;;2.10;99.90;;;;;;5011880;28;20092;-73
2023/04/03 03:53:01;;;;;;;2.22;1.30;;;2.10;99.90;;;;;;5005340;28;20084;-73
2023/04/03 03:55:27;;;;;;;1.30;1.17;;;2.00;99.90;;;;;;4984270;28;20288;-73
2023/04/03 03:57:53;;;;;;;2.47;1.35;;;2.10;99.90;;;;;;5013750;28;20038;-73
2023/04/03 04:00:19;;;;;;;1.88;1.30;;;2.00;99.90;;;;;;4991661;28;20033;-73
2023/04/03 04:02:45;;;;;;;2.53;1.60;;;2.00;99.90;;;;;;5010435;28;20056;-73
2023/04/03 04:05:11;;;;;;;5.45;1.60;;;1.90;99.90;;;;;;5012546;28;20026;-73
2023/04/03 04:07:37;;;;;;;3.65;1.65;;;1.90;99.90;;;;;;5001413;28;20038;-71
2023/04/03 04:10:03;;;;;;;3.95;1.48;;;1.80;99.90;;;;;;5010604;28;20034;-70
2023/04/03 04:12:29;;;;;;;2.85;1.08;;;1.90;99.90;;;;;;4994477;28;20025;-70
2023/04/03 04:14:55;;;;;;;6.18;1.60;;;1.80;99.90;;;;;;5012529;28;20092;-70
2023/04/03 04:17:21;;;;;;;1.40;1.10;;;1.80;99.90;;;;;;5010507;28;20463;-71
2023/04/03 04:19:47;;;;;;;4.72;1.70;;;1.80;99.90;;;;;;5010978;28;20032;-70
2023/04/03 04:22:13;;;;;;;2.67;1.50;;;1.90;99.90;;;;;;5012921;28;20041;-71
2023/04/03 04:24:39;;;;;;;1.52;1.08;;;1.90;99.90;;;;;;5010885;28;20045;-71
2023/04/03 04:27:04;;;;;;;2.92;1.63;;;1.90;99.90;;;;;;5010667;28;20026;-70
2023/04/03 04:29:35;;;;;;;2.22;1.58;;;1.90;99.90;;;;;;4988367;28;20026;-70
2023/04/03 04:32:02;;;;;;;1.87;1.50;;;1.80;99.90;;;;;;4979978;28;20023;-71
2023/04/03 04:34:28;;;;;;;2.30;1.50;;;1.90;99.90;;;;;;4980853;28;20285;-70
2023/04/03 04:36:54;;;;;;;3.83;1.92;;;1.90;99.90;;;;;;5012747;28;20037;-71
2023/04/03 04:39:19;;;;;;;1.77;1.30;;;1.90;99.90;;;;;;4999410;28;20022;-70
2023/04/03 04:41:45;;;;;;;5.80;3.47;;;1.90;99.90;;;;;;5012641;28;20614;-70
2023/04/03 04:44:11;;;;;;;2.70;1.88;;;1.90;99.90;;;;;;5008517;28;20038;-69
2023/04/03 04:46:37;;;;;;;3.90;2.13;;;1.90;99.90;;;;;;5011907;28;20034;-70
2023/04/03 04:49:02;;;;;;;3.13;1.75;;;1.90;99.90;;;;;;4995586;28;20026;-73
2023/04/03 04:51:28;;;;;;;2.70;1.75;;;1.90;99.90;;;;;;4999828;28;20030;-71
2023/04/03 04:53:54;;;;;;;2.15;1.08;;;1.90;99.90;;;;;;5005665;28;20532;-68
2023/04/03 04:56:20;;;;;;;2.97;2.08;;;1.80;99.90;;;;;;5012247;28;20029;-68
2023/04/03 04:58:46;;;;;;;2.58;1.25;;;1.90;99.90;;;;;;5006411;28;20034;-70
2023/04/03 05:01:12;;;;;;;2.75;1.80;;;1.90;99.90;;;;;;5002334;28;20036;-69
2023/04/03 05:03:38;;;;;;;4.95;1.75;;;1.90;99.90;;;;;;5008946;28;20026;-70
2023/04/03 05:06:04;;;;;;;2.25;1.50;;;1.80;99.90;;;;;;5011769;28;20030;-68
2023/04/03 05:08:31;;;;;;;8.43;1.48;;;1.90;99.90;;;;;;5009457;28;20029;-68
2023/04/03 05:10:57;;;;;;;1.90;1.58;;;1.80;99.90;;;;;;4985061;28;20018;-70
2023/04/03 05:13:23;;;;;;;3.08;2.15;;;1.70;99.90;;;;;;4976628;28;20425;-70
2023/04/03 05:15:49;;;;;;;3.95;1.77;;;1.70;99.90;;;;;;5007004;28;20038;-70
2023/04/03 05:18:15;;;;;;;33.05;1.55;;;1.80;99.90;;;;;;5014166;28;20034;-69
2023/04/03 05:20:41;;;;;;;2.95;1.23;;;1.80;99.90;;;;;;5008248;28;20056;-69
2023/04/03 05:23:07;;;;;;;2.90;2.33;;;1.80;99.90;;;;;;5012015;28;20127;-69
2023/04/03 05:25:32;;;;;;;1.65;1.50;;;1.80;99.90;;;;;;5011364;28;20026;-70
2023/04/03 05:27:58;;;;;;;5.20;1.85;;;1.80;99.90;;;;;;5013487;28;20029;-69
2023/04/03 05:30:24;;;;;;;3.42;2.13;;;1.80;99.90;;;;;;5008204;28;20109;-70
2023/04/03 05:32:50;;;;;;;20.63;2.75;;;1.90;99.90;;;;;;5004357;28;20478;-69
2023/04/03 05:35:16;;;;;;;3.40;1.70;;;1.90;99.90;;;;;;5004265;28;20405;-70
2023/04/03 05:37:42;;;;;;;2.72;1.52;;;1.90;99.90;;;;;;5013952;28;20486;-69
2023/04/03 05:40:09;;;;;;;1.15;0.90;;;1.80;99.90;;;;;;5010291;28;20121;-69
2023/04/03 05:42:34;;;;;;;4.20;2.30;;;1.90;99.90;;;;;;4986141;28;20022;-69
2023/04/03 05:45:00;;;;;;;3.28;1.65;;;1.90;99.90;;;;;;5009970;28;20041;-70
2023/04/03 05:47:26;;;;;;;3.53;2.38;;;1.90;99.90;;;;;;5011045;28;20059;-70
2023/04/03 05:49:52;;;;;;;3.63;1.77;;;1.90;99.90;;;;;;5010389;28;20053;-69
2023/04/03 05:52:29;;;;;;;2.38;2.10;;;1.90;99.90;;;;;;5011118;28;20371;-69
2023/04/03 05:54:55;;;;;;;8.27;2.15;;;1.90;99.90;;;;;;5006741;28;20117;-70
2023/04/03 05:57:22;;;;;;;3.10;1.80;;;2.00;99.90;;;;;;5011077;28;20106;-69
2023/04/03 05:59:48;;;;;;;4.70;2.63;;;1.90;99.90;;;;;;4996675;28;20026;-69
2023/04/03 06:02:23;;;;;;;3.08;2.38;;;2.00;99.90;;;;;;5010776;28;20112;-68
2023/04/03 06:04:50;;;;;;;2.00;1.67;;;2.00;99.90;;;;;;5004445;28;20076;-68
2023/04/03 06:07:28;;;;;;;3.25;2.10;;;2.00;99.90;;;;;;5011064;28;20457;-68
2023/04/03 06:09:55;;;;;;;3.35;1.65;;;2.00;99.90;;;;;;5004805;28;20033;-69
2023/04/03 06:12:22;;;;;;;3.30;2.10;;;2.10;99.90;;;;;;5010717;28;20058;-68
2023/04/03 06:14:48;;;;;;;3.70;1.35;;;2.10;99.90;;;;;;5006617;28;20018;-68
2023/04/03 06:17:16;;;;;;;3.13;2.25;;;2.20;99.90;;;;;;5001598;28;20030;-69
2023/04/03 06:19:42;;;;;;;4.00;1.95;;;2.30;99.90;;;;;;5006355;28;20049;-69
2023/04/03 06:22:08;;;;;;;6.15;1.75;;;2.30;99.90;;;;;;5005213;28;20038;-68
2023/04/03 06:24:33;;;;;;;3.08;1.95;;;2.40;99.90;;;;;;5010542;28;20478;-68
2023/04/03 06:26:59;;;;;;;5.03;2.13;;;2.40;99.90;;;;;;5004167;28;20026;-69
2023/04/03 06:29:25;;;;;;;6.28;2.30;;;2.50;99.90;;;;;;5010851;28;20034;-69
2023/04/03 06:31:51;;;;;;;4.20;2.15;;;2.60;99.90;;;;;;5004513;28;20425;-69
2023/04/03 06:34:17;;;;;;;3.97;1.90;;;2.60;99.90;;;;;;5010700;28;20504;-70
2023/04/03 06:36:44;;;;;;;1.88;1.58;;;2.70;99.90;;;;;;5004617;28;20064;-70
2023/04/03 06:39:17;;;;;;;2.35;1.42;;;2.90;99.90;;;;;;5004420;28;20029;-71
2023/04/03 06:41:44;;;;;;;37.45;2.80;;;3.00;99.90;;;;;;5004146;28;20429;-70
2023/04/03 06:44:11;;;;;;;1.90;1.45;;;3.10;99.90;;;;;;5010406;28;20037;-71
2023/04/03 06:46:38;;;;;;;3.17;1.25;;;3.30;99.90;;;;;;5004656;28;20061;-71
2023/04/03 06:49:07;;;;;;;4.60;1.73;;;3.30;99.90;;;;;;5010553;28;20045;-71
2023/04/03 06:51:35;;;;;;;3.67;1.23;;;3.40;99.90;;;;;;5004512;28;20037;-71
2023/04/03 06:54:02;;;;;;;5.25;1.50;;;3.70;99.90;;;;;;5010247;28;20040;-70
2023/04/03 06:56:28;;;;;;;1.95;1.20;;;3.70;99.90;;;;;;4995950;28;20041;-70
2023/04/03 06:58:57;;;;;;;6.22;1.73;;;3.90;99.90;;;;;;5013001;28;20110;-70
2023/04/03 07:01:27;;;;;;;4.22;2.60;;;4.00;99.90;;;;;;5008417;28;20029;-71
2023/04/03 07:03:53;;;;;;;2.58;1.45;;;4.10;99.90;;;;;;5014035;28;20034;-71
2023/04/03 07:06:19;;;;;;;11.27;2.80;;;4.10;99.90;;;;;;5007868;28;20026;-70
2023/04/03 07:08:46;;;;;;;3.45;1.88;;;4.20;99.90;;;;;;5014333;28;20037;-69
2023/04/03 07:11:12;;;;;;;3.55;1.65;;;4.30;99.90;;;;;;5008180;28;20033;-69
2023/04/03 07:13:39;;;;;;;2.28;1.17;;;4.40;99.90;;;;;;5013890;28;20516;-70
2023/04/03 07:16:06;;;;;;;4.28;1.88;;;4.30;99.90;;;;;;5006207;28;20033;-67
2023/04/03 07:18:33;;;;;;;3.97;1.50;;;4.40;99.90;;;;;;5014118;28;20029;-70
2023/04/03 07:20:59;;;;;;;5.85;2.17;;;4.50;99.90;;;;;;4975453;28;20493;-70
2023/04/03 07:23:25;;;;;;;4.47;1.95;;;4.60;99.90;;;;;;5010033;28;20481;-71
2023/04/03 07:25:52;;;;;;;13.65;1.20;;;4.80;99.90;;;;;;5012203;28;20037;-68
2023/04/03 07:28:20;;;;;;;1.75;1.27;;;4.90;99.90;;;;;;5009847;28;20469;-68
2023/04/03 07:30:49;;;;;;;5.97;2.03;;;4.90;99.90;;;;;;5012869;28;20528;-69
2023/04/03 07:33:17;;;;;;;3.97;1.27;;;5.00;99.90;;;;;;5008825;28;20561;-69
2023/04/03 07:35:44;;;;;;;2.35;0.75;;;5.10;99.90;;;;;;5011096;28;20030;-69
2023/04/03 07:38:11;;;;;;;6.63;1.48;;;5.20;99.90;;;;;;5011781;28;20030;-69
2023/04/03 07:40:38;;;;;;;7.65;2.80;;;5.30;99.90;;;;;;5011647;28;20449;-69
2023/04/03 07:43:05;;;;;;;2.97;1.50;;;5.40;99.90;;;;;;5013071;28;20068;-69
2023/04/03 07:45:34;;;;;;;11.93;2.45;;;5.50;99.90;;;;;;5009874;28;20096;-69
2023/04/03 07:48:00;;;;;;;2.63;1.13;;;5.50;99.90;;;;;;4997806;28;20026;-69
2023/04/03 07:50:27;;;;;;;8.43;2.20;;;5.70;99.90;;;;;;5011610;28;20120;-68
2023/04/03 07:52:54;;;;;;;6.57;1.90;;;5.70;99.90;;;;;;5013291;28;20382;-70
2023/04/03 07:55:20;;;;;;;5.80;2.20;;;5.70;99.90;;;;;;5012220;28;20026;-71
2023/04/03 07:57:46;;;;;;;10.45;2.20;;;5.90;99.90;;;;;;5019472;28;20049;-71
2023/04/03 08:00:13;;;;;;;4.55;1.10;;;6.00;99.90;;;;;;5013581;28;20116;-71
2023/04/03 08:02:39;;;;;;;1.35;1.00;;;5.90;99.90;;;;;;5012205;28;20528;-71
2023/04/03 08:05:05;;;;;;;1.05;0.63;;;6.10;99.90;;;;;;5012847;28;20025;-71
2023/04/03 08:07:31;;;;;;;1.45;0.95;;;6.00;99.90;;;;;;5011095;28;20497;-70
2023/04/03 08:09:57;;;;;;;3.83;1.13;;;6.10;99.90;;;;;;5012739;28;20041;-71
2023/04/03 08:12:22;;;;;;;1.30;0.90;;;6.10;99.90;;;;;;5011448;28;20165;-70
2023/04/03 08:14:48;;;;;;;4.95;1.55;;;6.20;99.90;;;;;;5012941;28;20034;-71
2023/04/03 08:17:14;;;;;;;2.42;1.88;;;6.30;99.90;;;;;;5011512;28;20433;-71
2023/04/03 08:19:40;;;;;;;7.05;1.15;;;6.50;99.90;;;;;;5013015;28;20123;-71
2023/04/03 08:22:06;;;;;;;4.95;1.40;;;6.60;99.90;;;;;;5011558;28;20045;-71
2023/04/03 08:24:35;;;;;;;3.40;1.80;;;6.50;99.90;;;;;;5012661;28;20038;-70
2023/04/03 08:27:01;;;;;;;2.10;1.13;;;6.60;99.90;;;;;;5011380;28;20102;-71
2023/04/03 08:29:27;;;;;;;1.17;0.70;;;6.80;99.90;;;;;;5012851;28;20056;-71
2023/04/03 08:31:53;;;;;;;1.83;0.90;;;6.80;99.90;;;;;;5011576;28;20559;-71
2023/04/03 08:34:20;;;;;;;1.75;1.15;;;6.90;99.90;;;;;;5026529;28;20481;-71
2023/04/03 08:36:46;;;;;;;6.28;1.42;;;6.90;99.90;;;;;;5018320;28;20092;-71
2023/04/03 08:39:12;;;;;;;2.28;0.95;;;6.80;99.90;;;;;;5006253;28;20517;-71
2023/04/03 08:41:46;;;;;;;1.58;0.90;;;7.00;99.90;;;;;;5007962;28;20040;-71
2023/04/03 08:44:45;;;;;;;2.78;0.85;;;7.10;99.90;;;;;;5005962;28;20114;-71
2023/04/03 08:47:43;;;;;;;2.05;1.08;;;7.10;99.90;;;;;;5010815;28;20068;-70
2023/04/03 08:50:19;;;;;;;1.88;1.20;;;7.20;99.90;;;;;;5012582;28;20145;-70
2023/04/03 08:52:51;;;;;;;1.27;0.50;;;7.30;99.90;;;;;;5011241;28;20087;-70
2023/04/03 08:55:28;;;;;;;1.83;0.70;;;7.50;99.90;;;;;;5010182;28;20034;-71
2023/04/03 08:58:07;;;;;;;1.05;0.70;;;7.60;99.90;;;;;;5011017;28;20080;-71
2023/04/03 09:00:47;;;;;;;4.68;1.00;;;7.80;99.70;;;;;;4993737;28;20175;-71
2023/04/03 09:03:17;;;;;;;7.40;1.02;;;7.70;99.90;;;;;;5005368;28;20060;-69
2023/04/03 09:06:05;;;;;;;0.87;0.60;;;7.70;99.90;;;;;;5026500;28;20045;-70
2023/04/03 09:08:50;;;;;;;0.60;0.30;;;7.70;99.30;;;;;;5012148;28;20038;-71
2023/04/03 09:11:28;;;;;;;2.90;1.25;;;7.90;99.90;;;;;;5007718;28;20083;-71
2023/04/03 09:14:22;;;;;;;2.92;0.88;;;7.90;99.10;;;;;;5019194;28;20038;-71
2023/04/03 09:17:03;;;;;;;0.40;0.30;;;8.10;98.10;;;;;;5000981;28;20065;-71
2023/04/03 09:19:32;;;;;;;0.50;0.50;;;8.20;98.40;;;;;;5007887;28;20505;-72
2023/04/03 09:22:12;;;;;;;4.00;0.90;;;8.20;98.40;;;;;;5018391;28;20315;-71
2023/04/03 09:24:39;;;;;;;1.70;1.25;;;8.30;97.70;;;;;;5023859;28;20038;-72
2023/04/03 09:27:10;;;;;;;3.92;0.40;;;8.40;98.00;;;;;;4990116;28;20026;-72
2023/04/03 09:29:45;;;;;;;0.82;0.63;;;8.00;97.20;;;;;;5011721;28;20083;-71
2023/04/03 09:32:38;;;;;;;0.70;0.40;;;8.30;97.80;;;;;;5023766;23;20018;-74
2023/04/03 09:35:19;;;;;;;1.20;0.73;;;8.60;97.80;;;;;;4980507;28;20057;-74
2023/04/03 09:38:09;;;;;;;6.45;0.68;;;8.60;96.00;;;;;;4987715;28;20038;-74
2023/04/03 09:40:45;;;;;;;0.73;0.57;;;8.80;95.60;;;;;;4980111;28;20121;-74
2023/04/03 09:43:17;;;;;;;11.85;1.90;;;9.00;94.70;;;;;;4982900;28;20078;-75
2023/04/03 09:45:45;;;;;;;2.85;1.00;;;8.80;95.30;;;;;;4972155;28;20045;-74
2023/04/03 09:48:14;;;;;;;4.50;0.70;;;9.00;94.70;;;;;;4968058;28;20037;-75
2023/04/03 09:51:01;;;;;;;3.60;0.85;;;9.30;94.30;;;;;;4972084;28;20126;-74
2023/04/03 09:53:32;;;;;;;1.92;0.52;;;9.20;93.90;;;;;;4970033;28;20466;-75
2023/04/03 09:56:00;;;;;;;0.65;0.45;;;9.00;94.20;;;;;;4980411;28;20039;-75
2023/04/03 09:58:42;;;;;;;2.38;0.65;;;9.00;94.30;;;;;;4969999;28;20112;-75
2023/04/03 10:01:31;;;;;;;3.45;1.23;;;9.40;94.30;;;;;;4970647;28;20078;-75
2023/04/03 10:04:10;;;;;;;0.57;0.38;;;9.70;93.60;;;;;;4967821;28;20053;-75
2023/04/03 10:06:49;;;;;;;2.75;1.23;;;9.80;93.10;;;;;;4968588;28;20047;-74
2023/04/03 10:09:28;;;;;;;2.65;0.82;;;9.30;93.40;;;;;;4970051;28;20121;-75
2023/04/03 10:12:08;;;;;;;0.30;0.20;;;9.40;93.90;;;;;;4951654;29;20027;-75
2023/04/03 10:14:40;;;;;;;2.75;0.57;;;9.80;94.00;;;;;;4969272;28;20031;-75
2023/04/03 10:17:20;;;;;;;0.90;0.32;;;9.80;93.60;;;;;;4970363;28;20418;-75
2023/04/03 10:19:57;;;;;;;0.55;0.30;;;10.10;92.30;;;;;;4971148;28;20046;-75
2023/04/03 10:22:51;;;;;;;1.00;0.63;;;10.40;93.40;;;;;;4986370;28;20045;-75
2023/04/03 10:25:50;;;;;;;0.65;0.50;;;10.60;91.70;;;;;;4959228;28;20395;-75
2023/04/03 10:28:43;;;;;;;1.00;0.60;;;10.10;90.90;;;;;;4970015;28;20134;-75
2023/04/03 10:31:33;;;;;;;3.13;0.95;;;10.10;91.60;;;;;;4965005;28;20029;-74
2023/04/03 10:34:43;;;;;;;1.42;0.47;;;9.90;90.90;;;;;;4975940;28;20030;-74
2023/04/03 10:37:36;;;;;;;2.88;0.20;;;10.00;91.00;;;;;;4943693;28;20091;-75
2023/04/03 10:40:35;;;;;;;1.08;0.70;;;9.80;90.60;;;;;;4956764;28;20065;-74
2023/04/03 10:43:53;;;;;;;0.30;0.30;;;9.80;91.30;;;;;;4970776;28;20117;-75
2023/04/03 10:46:26;;;;;;;0.30;0.20;;;10.70;90.40;;;;;;4966173;28;20071;-75
2023/04/03 10:49:07;;;;;;;2.58;0.57;;;11.00;88.60;;;;;;4971098;28;20027;-75
2023/04/03 10:52:12;;;;;;;1.90;0.80;;;11.30;88.40;;;;;;4971609;28;20042;-75
2023/04/03 10:54:46;;;;;;;1.67;0.90;;;11.00;86.40;;;;;;4960417;28;20109;-75
2023/04/03 10:57:12;;;;;;;1.45;0.60;;;10.90;88.70;;;;;;4969768;28;20031;-74
2023/04/03 10:59:59;;;;;;;1.08;0.43;;;10.30;89.40;;;;;;4971360;28;20089;-75
2023/04/03 11:03:00;;;;;;;0.70;0.47;;;10.10;90.20;;;;;;4969711;28;20502;-74
2023/04/03 11:05:47;;;;;;;;;;;9.90;88.70;;;;;;4949275;28;20039;-74
2023/04/03 11:08:50;;;;;;;2.58;0.90;;;10.00;90.20;;;;;;4970911;28;20297;-74
2023/04/03 11:11:25;;;;;;;5.55;0.90;;;10.10;88.90;;;;;;4961118;28;20034;-74
2023/04/03 11:14:17;;;;;;;1.25;0.70;;;10.80;88.10;;;;;;4969300;28;20038;-74
2023/04/03 11:16:48;;;;;;;4.38;0.65;;;11.20;86.90;;;;;;4970114;28;20027;-74
2023/04/03 11:19:32;;;;;;;0.95;0.68;;;11.00;84.40;;;;;;4969225;28;20037;-74
2023/04/03 11:22:01;;;;;;;3.10;1.00;;;11.10;83.60;;;;;;4934750;29;20039;-74
2023/04/03 11:24:32;;;;;;;0.63;0.40;;;11.10;84.60;;;;;;4970794;28;20039;-75
2023/04/03 11:26:59;;;;;;;2.05;0.65;;;11.50;83.70;;;;;;4970104;28;20035;-75
2023/04/03 11:29:36;;;;;;;3.28;1.55;;;11.20;85.00;;;;;;4969521;28;20410;-74
2023/04/03 11:32:32;;;;;;;0.88;0.57;;;11.00;85.10;;;;;;4969804;28;20027;-74
2023/04/03 11:35:01;;;;;;;0.95;0.60;;;10.80;85.60;;;;;;4977503;28;20026;-74
2023/04/03 11:37:48;;;;;;;1.60;0.75;;;10.90;86.50;;;;;;4969638;28;20026;-75
2023/04/03 11:40:19;;;;;;;1.58;0.45;;;10.80;84.60;;;;;;4969744;28;20030;-75
2023/04/03 11:42:52;;;;;;;7.93;1.58;;;10.50;84.60;;;;;;4970730;28;20070;-74
2023/04/03 11:45:21;;;;;;;7.35;0.82;;;10.60;83.50;;;;;;4972895;28;20039;-74
2023/04/03 11:48:03;;;;;;;61.22;8.90;;;10.60;82.90;;;;;;4973995;28;20731;-74
2023/04/03 11:50:35;;;;;;;6.53;2.63;;;10.40;85.40;;;;;;4973440;28;20054;-74
2023/04/03 11:53:07;;;;;;;2.50;0.68;;;9.60;86.70;;;;;;4973612;28;20081;-74
2023/04/03 11:55:33;;;;;;;0.80;0.40;;;9.30;89.70;;;;;;4974245;28;20023;-74
2023/04/03 11:57:59;;;;;;;0.85;0.40;;;9.60;89.50;;;;;;4973826;28;20525;-74
2023/04/03 12:00:46;;;;;;;0.68;0.45;;;9.50;88.20;;;;;;4974383;28;20113;-74
2023/04/03 12:03:27;;;;;;;0.93;0.60;;;9.30;90.00;;;;;;4973189;28;20034;-74
2023/04/03 12:06:04;;;;;;;1.48;0.52;;;9.50;90.30;;;;;;4966316;28;20042;-74
2023/04/03 12:08:50;;;;;;;2.75;0.70;;;9.90;89.60;;;;;;4973032;28;20070;-74
2023/04/03 12:11:29;;;;;;;2.55;0.70;;;9.80;89.60;;;;;;4973936;28;20034;-74
2023/04/03 12:13:55;;;;;;;1.25;1.15;;;9.80;89.80;;;;;;4973076;28;20045;-74
2023/04/03 12:16:38;;;;;;;1.00;0.90;;;10.40;89.00;;;;;;4973705;28;20038;-74
2023/04/03 12:19:43;;;;;;;3.92;0.73;;;10.40;86.70;;;;;;4973247;28;20034;-74
2023/04/03 12:22:23;;;;;;;1.23;0.70;;;10.80;84.30;;;;;;4955350;28;20035;-74
2023/04/03 12:24:52;;;;;;;3.28;0.82;;;10.40;84.40;;;;;;4973449;28;20026;-73
2023/04/03 12:27:23;;;;;;;1.25;0.57;;;10.60;85.90;;;;;;4971850;28;20097;-74
2023/04/03 12:30:06;;;;;;;0.95;0.85;;;9.80;86.60;;;;;;4973406;28;20037;-74
2023/04/03 12:33:14;;;;;;;3.63;0.73;;;9.70;88.40;;;;;;4971580;28;20479;-74
2023/04/03 12:36:18;;;;;;;1.92;0.50;;;9.50;88.20;;;;;;4973361;28;20165;-74
2023/04/03 12:39:31;;;;;;;2.75;0.95;;;9.30;89.20;;;;;;4972267;28;20065;-74
2023/04/03 12:42:22;;;;;;;1.52;0.70;;;9.80;89.40;;;;;;4946319;29;20043;-75
2023/04/03 12:45:02;;;;;;;0.85;0.57;;;10.70;84.60;;;;;;4973316;28;20023;-74
2023/04/03 12:47:37;;;;;;;1.23;0.60;;;11.60;85.60;;;;;;4971935;28;20038;-73
2023/04/03 12:50:23;;;;;;;7.18;1.20;;;12.50;83.90;;;;;;4973348;28;20022;-74
2023/04/03 12:53:01;;;;;;;1.33;0.32;;;13.20;82.20;;;;;;4971609;28;20030;-74
2023/04/03 12:55:27;;;;;;;3.10;1.10;;;12.70;81.60;;;;;;4971193;28;20023;-74
2023/04/03 12:57:53;;;;;;;3.30;0.43;;;13.00;82.00;;;;;;4973016;28;20487;-74
2023/04/03 13:00:34;;;;;;;6.00;1.38;;;13.50;79.90;;;;;;4973089;28;20026;-75
2023/04/03 13:03:04;;;;;;;1.00;0.50;;;12.60;79.70;;;;;;4975768;28;20142;-74
2023/04/03 13:05:32;;;;;;;1.63;0.80;;;11.60;80.90;;;;;;4974661;28;20487;-74
2023/04/03 13:08:04;;;;;;;1.33;0.55;;;12.70;80.60;;;;;;4971421;28;20130;-74
2023/04/03 13:10:32;;;;;;;5.35;1.10;;;12.40;79.10;;;;;;4972891;28;20038;-75
2023/04/03 13:13:09;;;;;;;1.63;0.65;;;13.10;78.80;;;;;;4972473;28;20026;-75
2023/04/03 13:15:48;;;;;;;2.00;1.15;;;14.70;74.30;;;;;;4972855;28;20098;-74
2023/04/03 13:18:33;;;;;;;2.55;0.85;;;13.20;77.10;;;;;;4971204;28;20023;-74